sensor_id;sensor_type;location;lat;lon;timestamp;P1;durP1;ratioP1;P2;durP2;ratioP2
23519;SDS011;11936;50.820;4.336;2023-07-13T00:01:24;8.18;;;2.15;;
23519;SDS011;11936;50.820;4.336;2023-07-13T00:03:50;8.23;;;1.95;;
23519;SDS011;11936;50.820;4.336;2023-07-13T00:06:16;11.45;;;2.05;;
23519;SDS011;11936;50.820;4.336;2023-07-13T00:08:41;10.05;;;2.05;;
23519;SDS011;11936;50.820;4.336;2023-07-13T00:11:07;5.57;;;2.88;;
23519;SDS011;11936;50.820;4.336;2023-07-13T00:13:35;10.93;;;3.10;;
23519;SDS011;11936;50.820;4.336;2023-07-13T00:16:03;12.70;;;2.85;;
23519;SDS011;11936;50.820;4.336;2023-07-13T00:18:28;5.75;;;1.85;;
23519;SDS011;11936;50.820;4.336;2023-07-13T00:20:55;10.68;;;2.95;;
23519;SDS011;11936;50.820;4.336;2023-07-13T00:23:21;6.82;;;2.15;;
23519;SDS011;11936;50.820;4.336;2023-07-13T00:25:46;6.75;;;2.33;;
23519;SDS011;11936;50.820;4.336;2023-07-13T00:28:12;5.00;;;1.90;;
23519;SDS011;11936;50.820;4.336;2023-07-13T00:30:38;9.43;;;2.05;;
23519;SDS011;11936;50.820;4.336;2023-07-13T00:33:03;10.60;;;2.35;;
23519;SDS011;11936;50.820;4.336;2023-07-13T00:35:30;7.43;;;2.08;;
23519;SDS011;11936;50.820;4.336;2023-07-13T00:37:56;10.88;;;2.13;;
23519;SDS011;11936;50.820;4.336;2023-07-13T00:40:21;9.50;;;2.67;;
23519;SDS011;11936;50.820;4.336;2023-07-13T00:42:47;8.48;;;2.20;;
23519;SDS011;11936;50.820;4.336;2023-07-13T00:47:39;9.30;;;2.47;;
23519;SDS011;11936;50.820;4.336;2023-07-13T00:50:09;7.50;;;2.63;;
23519;SDS011;11936;50.820;4.336;2023-07-13T00:52:37;7.93;;;2.30;;
23519;SDS011;11936;50.820;4.336;2023-07-13T00:55:06;8.05;;;2.03;;
23519;SDS011;11936;50.820;4.336;2023-07-13T00:57:34;9.20;;;2.03;;
23519;SDS011;11936;50.820;4.336;2023-07-13T01:00:01;9.25;;;2.10;;
23519;SDS011;11936;50.820;4.336;2023-07-13T01:02:34;9.50;;;2.65;;
23519;SDS011;11936;50.820;4.336;2023-07-13T01:05:08;10.18;;;2.58;;
23519;SDS011;11936;50.820;4.336;2023-07-13T01:07:35;6.85;;;2.92;;
23519;SDS011;11936;50.820;4.336;2023-07-13T01:10:01;6.72;;;2.28;;
23519;SDS011;11936;50.820;4.336;2023-07-13T01:12:27;13.85;;;2.47;;
23519;SDS011;11936;50.820;4.336;2023-07-13T01:15:00;12.82;;;2.70;;
23519;SDS011;11936;50.820;4.336;2023-07-13T01:17:27;7.63;;;2.15;;
23519;SDS011;11936;50.820;4.336;2023-07-13T01:19:54;8.50;;;2.10;;
23519;SDS011;11936;50.820;4.336;2023-07-13T01:22:19;9.70;;;3.15;;
23519;SDS011;11936;50.820;4.336;2023-07-13T01:24:50;16.17;;;2.80;;
23519;SDS011;11936;50.820;4.336;2023-07-13T01:27:17;6.78;;;2.60;;
23519;SDS011;11936;50.820;4.336;2023-07-13T01:29:48;13.23;;;2.80;;
23519;SDS011;11936;50.820;4.336;2023-07-13T01:32:22;14.13;;;2.58;;
23519;SDS011;11936;50.820;4.336;2023-07-13T01:34:50;12.30;;;2.85;;
23519;SDS011;11936;50.820;4.336;2023-07-13T01:37:19;9.93;;;2.92;;
23519;SDS011;11936;50.820;4.336;2023-07-13T01:39:45;9.40;;;2.60;;
23519;SDS011;11936;50.820;4.336;2023-07-13T01:42:11;7.20;;;2.22;;
23519;SDS011;11936;50.820;4.336;2023-07-13T01:44:37;9.38;;;2.88;;
23519;SDS011;11936;50.820;4.336;2023-07-13T01:47:03;9.57;;;2.40;;
23519;SDS011;11936;50.820;4.336;2023-07-13T01:49:29;10.02;;;3.03;;
23519;SDS011;11936;50.820;4.336;2023-07-13T01:51:54;9.77;;;2.92;;
23519;SDS011;11936;50.820;4.336;2023-07-13T01:54:20;9.90;;;2.60;;
23519;SDS011;11936;50.820;4.336;2023-07-13T01:56:45;10.68;;;2.70;;
23519;SDS011;11936;50.820;4.336;2023-07-13T01:59:11;8.95;;;2.95;;
23519;SDS011;11936;50.820;4.336;2023-07-13T02:01:37;10.32;;;2.40;;
23519;SDS011;11936;50.820;4.336;2023-07-13T02:04:02;8.75;;;2.80;;
23519;SDS011;11936;50.820;4.336;2023-07-13T02:06:28;8.68;;;2.58;;
23519;SDS011;11936;50.820;4.336;2023-07-13T02:08:54;10.70;;;2.85;;
23519;SDS011;11936;50.820;4.336;2023-07-13T02:11:20;10.25;;;2.90;;
23519;SDS011;11936;50.820;4.336;2023-07-13T02:13:45;10.80;;;3.00;;
23519;SDS011;11936;50.820;4.336;2023-07-13T02:16:11;7.25;;;2.78;;
23519;SDS011;11936;50.820;4.336;2023-07-13T02:18:37;10.55;;;2.95;;
23519;SDS011;11936;50.820;4.336;2023-07-13T02:21:02;10.38;;;3.17;;
23519;SDS011;11936;50.820;4.336;2023-07-13T02:23:28;9.65;;;3.17;;
23519;SDS011;11936;50.820;4.336;2023-07-13T02:25:57;12.38;;;3.08;;
23519;SDS011;11936;50.820;4.336;2023-07-13T02:28:23;10.55;;;2.78;;
23519;SDS011;11936;50.820;4.336;2023-07-13T02:30:49;9.82;;;2.78;;
23519;SDS011;11936;50.820;4.336;2023-07-13T02:33:15;11.70;;;2.92;;
23519;SDS011;11936;50.820;4.336;2023-07-13T02:35:41;12.80;;;3.10;;
23519;SDS011;11936;50.820;4.336;2023-07-13T02:38:06;10.52;;;2.58;;
23519;SDS011;11936;50.820;4.336;2023-07-13T02:40:33;10.45;;;3.17;;
23519;SDS011;11936;50.820;4.336;2023-07-13T02:43:00;12.38;;;2.92;;
23519;SDS011;11936;50.820;4.336;2023-07-13T02:45:26;12.00;;;3.58;;
23519;SDS011;11936;50.820;4.336;2023-07-13T02:47:52;9.52;;;2.55;;
23519;SDS011;11936;50.820;4.336;2023-07-13T02:50:18;13.35;;;3.97;;
23519;SDS011;11936;50.820;4.336;2023-07-13T02:52:44;11.52;;;3.55;;
23519;SDS011;11936;50.820;4.336;2023-07-13T02:55:09;9.10;;;2.90;;
23519;SDS011;11936;50.820;4.336;2023-07-13T02:57:35;8.40;;;2.75;;
23519;SDS011;11936;50.820;4.336;2023-07-13T03:00:01;7.15;;;2.55;;
23519;SDS011;11936;50.820;4.336;2023-07-13T03:02:30;12.68;;;3.22;;
23519;SDS011;11936;50.820;4.336;2023-07-13T03:04:57;10.57;;;3.78;;
23519;SDS011;11936;50.820;4.336;2023-07-13T03:07:22;13.52;;;3.13;;
23519;SDS011;11936;50.820;4.336;2023-07-13T03:09:48;13.55;;;3.55;;
23519;SDS011;11936;50.820;4.336;2023-07-13T03:12:14;10.82;;;2.88;;
23519;SDS011;11936;50.820;4.336;2023-07-13T03:14:40;10.18;;;3.58;;
23519;SDS011;11936;50.820;4.336;2023-07-13T03:17:05;9.65;;;3.08;;
23519;SDS011;11936;50.820;4.336;2023-07-13T03:19:31;9.23;;;3.20;;
23519;SDS011;11936;50.820;4.336;2023-07-13T03:21:56;13.13;;;3.05;;
23519;SDS011;11936;50.820;4.336;2023-07-13T03:24:22;14.00;;;2.90;;
23519;SDS011;11936;50.820;4.336;2023-07-13T03:26:50;12.23;;;2.58;;
23519;SDS011;11936;50.820;4.336;2023-07-13T03:29:16;12.27;;;3.45;;
23519;SDS011;11936;50.820;4.336;2023-07-13T03:31:42;12.50;;;3.33;;
23519;SDS011;11936;50.820;4.336;2023-07-13T03:34:10;16.52;;;3.38;;
23519;SDS011;11936;50.820;4.336;2023-07-13T03:36:36;14.10;;;3.80;;
23519;SDS011;11936;50.820;4.336;2023-07-13T03:39:02;8.70;;;3.08;;
23519;SDS011;11936;50.820;4.336;2023-07-13T03:41:28;8.63;;;2.80;;
23519;SDS011;11936;50.820;4.336;2023-07-13T03:43:53;11.88;;;4.50;;
23519;SDS011;11936;50.820;4.336;2023-07-13T03:46:19;13.18;;;3.60;;
23519;SDS011;11936;50.820;4.336;2023-07-13T03:48:45;17.60;;;3.53;;
23519;SDS011;11936;50.820;4.336;2023-07-13T03:51:13;10.93;;;2.90;;
23519;SDS011;11936;50.820;4.336;2023-07-13T03:53:40;11.75;;;3.15;;
23519;SDS011;11936;50.820;4.336;2023-07-13T03:56:07;12.67;;;4.37;;
23519;SDS011;11936;50.820;4.336;2023-07-13T03:58:34;11.55;;;2.95;;
23519;SDS011;11936;50.820;4.336;2023-07-13T04:01:03;10.77;;;3.90;;
23519;SDS011;11936;50.820;4.336;2023-07-13T04:03:30;17.95;;;5.30;;
23519;SDS011;11936;50.820;4.336;2023-07-13T04:05:57;12.32;;;3.30;;
23519;SDS011;11936;50.820;4.336;2023-07-13T04:08:26;13.52;;;3.20;;
23519;SDS011;11936;50.820;4.336;2023-07-13T04:10:52;13.30;;;3.40;;
23519;SDS011;11936;50.820;4.336;2023-07-13T04:13:18;15.25;;;3.45;;
23519;SDS011;11936;50.820;4.336;2023-07-13T04:15:43;11.73;;;3.35;;
23519;SDS011;11936;50.820;4.336;2023-07-13T04:18:09;13.38;;;3.42;;
23519;SDS011;11936;50.820;4.336;2023-07-13T04:20:34;14.05;;;5.32;;
23519;SDS011;11936;50.820;4.336;2023-07-13T04:23:03;15.27;;;3.42;;
23519;SDS011;11936;50.820;4.336;2023-07-13T04:25:28;15.02;;;3.88;;
23519;SDS011;11936;50.820;4.336;2023-07-13T04:27:54;17.15;;;6.13;;
23519;SDS011;11936;50.820;4.336;2023-07-13T04:30:20;14.63;;;3.53;;
23519;SDS011;11936;50.820;4.336;2023-07-13T04:32:46;13.23;;;5.05;;
23519;SDS011;11936;50.820;4.336;2023-07-13T04:35:12;11.65;;;3.33;;
23519;SDS011;11936;50.820;4.336;2023-07-13T04:37:39;13.15;;;3.38;;
23519;SDS011;11936;50.820;4.336;2023-07-13T04:40:05;16.65;;;4.45;;
23519;SDS011;11936;50.820;4.336;2023-07-13T04:42:31;9.68;;;3.35;;
23519;SDS011;11936;50.820;4.336;2023-07-13T04:44:57;12.60;;;3.42;;
23519;SDS011;11936;50.820;4.336;2023-07-13T04:47:23;14.82;;;4.63;;
23519;SDS011;11936;50.820;4.336;2023-07-13T04:49:48;15.50;;;3.85;;
23519;SDS011;11936;50.820;4.336;2023-07-13T04:52:14;14.98;;;3.42;;
23519;SDS011;11936;50.820;4.336;2023-07-13T04:54:39;11.40;;;3.85;;
23519;SDS011;11936;50.820;4.336;2023-07-13T04:57:06;9.18;;;3.25;;
23519;SDS011;11936;50.820;4.336;2023-07-13T04:59:32;12.75;;;3.30;;
23519;SDS011;11936;50.820;4.336;2023-07-13T05:01:58;10.43;;;3.65;;
23519;SDS011;11936;50.820;4.336;2023-07-13T05:04:24;13.73;;;3.80;;
23519;SDS011;11936;50.820;4.336;2023-07-13T05:06:50;13.30;;;3.28;;
23519;SDS011;11936;50.820;4.336;2023-07-13T05:09:15;14.75;;;3.95;;
23519;SDS011;11936;50.820;4.336;2023-07-13T05:11:41;15.43;;;4.18;;
23519;SDS011;11936;50.820;4.336;2023-07-13T05:14:08;13.18;;;3.00;;
23519;SDS011;11936;50.820;4.336;2023-07-13T05:16:34;12.13;;;3.60;;
23519;SDS011;11936;50.820;4.336;2023-07-13T05:19:00;17.58;;;3.90;;
23519;SDS011;11936;50.820;4.336;2023-07-13T05:21:26;17.38;;;3.70;;
23519;SDS011;11936;50.820;4.336;2023-07-13T05:23:52;13.20;;;3.08;;
23519;SDS011;11936;50.820;4.336;2023-07-13T05:26:17;15.07;;;3.80;;
23519;SDS011;11936;50.820;4.336;2023-07-13T05:28:43;14.50;;;3.28;;
23519;SDS011;11936;50.820;4.336;2023-07-13T05:31:09;8.43;;;3.30;;
23519;SDS011;11936;50.820;4.336;2023-07-13T05:33:35;21.70;;;4.28;;
23519;SDS011;11936;50.820;4.336;2023-07-13T05:36:01;16.02;;;3.75;;
23519;SDS011;11936;50.820;4.336;2023-07-13T05:38:27;18.77;;;3.58;;
23519;SDS011;11936;50.820;4.336;2023-07-13T05:40:54;13.13;;;3.60;;
23519;SDS011;11936;50.820;4.336;2023-07-13T05:43:21;14.82;;;4.00;;
23519;SDS011;11936;50.820;4.336;2023-07-13T05:45:46;14.27;;;3.88;;
23519;SDS011;11936;50.820;4.336;2023-07-13T05:48:12;19.67;;;3.78;;
23519;SDS011;11936;50.820;4.336;2023-07-13T05:50:38;14.40;;;3.92;;
23519;SDS011;11936;50.820;4.336;2023-07-13T05:53:03;12.65;;;3.35;;
23519;SDS011;11936;50.820;4.336;2023-07-13T05:55:29;12.27;;;3.67;;
23519;SDS011;11936;50.820;4.336;2023-07-13T05:57:56;15.30;;;3.85;;
23519;SDS011;11936;50.820;4.336;2023-07-13T06:00:23;13.10;;;4.20;;
23519;SDS011;11936;50.820;4.336;2023-07-13T06:02:49;14.50;;;3.67;;
23519;SDS011;11936;50.820;4.336;2023-07-13T06:05:15;18.40;;;4.38;;
23519;SDS011;11936;50.820;4.336;2023-07-13T06:07:41;17.45;;;3.60;;
23519;SDS011;11936;50.820;4.336;2023-07-13T06:10:07;11.45;;;3.38;;
23519;SDS011;11936;50.820;4.336;2023-07-13T06:12:33;14.15;;;3.17;;
23519;SDS011;11936;50.820;4.336;2023-07-13T06:14:58;18.17;;;4.45;;
23519;SDS011;11936;50.820;4.336;2023-07-13T06:17:24;16.48;;;4.88;;
23519;SDS011;11936;50.820;4.336;2023-07-13T06:19:49;17.65;;;3.97;;
23519;SDS011;11936;50.820;4.336;2023-07-13T06:22:15;15.70;;;4.10;;
23519;SDS011;11936;50.820;4.336;2023-07-13T06:24:41;15.40;;;4.18;;
23519;SDS011;11936;50.820;4.336;2023-07-13T06:27:06;15.00;;;4.25;;
23519;SDS011;11936;50.820;4.336;2023-07-13T06:29:32;13.85;;;3.85;;
23519;SDS011;11936;50.820;4.336;2023-07-13T06:31:58;14.13;;;3.60;;
23519;SDS011;11936;50.820;4.336;2023-07-13T06:34:23;11.07;;;3.13;;
23519;SDS011;11936;50.820;4.336;2023-07-13T06:36:49;10.80;;;3.38;;
23519;SDS011;11936;50.820;4.336;2023-07-13T06:39:15;11.98;;;3.10;;
23519;SDS011;11936;50.820;4.336;2023-07-13T06:41:40;12.57;;;3.60;;
23519;SDS011;11936;50.820;4.336;2023-07-13T06:44:06;16.23;;;3.40;;
23519;SDS011;11936;50.820;4.336;2023-07-13T06:46:32;14.48;;;3.50;;
23519;SDS011;11936;50.820;4.336;2023-07-13T06:48:57;20.00;;;3.72;;
23519;SDS011;11936;50.820;4.336;2023-07-13T06:51:23;12.20;;;3.00;;
23519;SDS011;11936;50.820;4.336;2023-07-13T06:53:49;15.43;;;4.53;;
23519;SDS011;11936;50.820;4.336;2023-07-13T06:56:15;16.08;;;3.83;;
23519;SDS011;11936;50.820;4.336;2023-07-13T06:58:40;12.05;;;3.22;;
23519;SDS011;11936;50.820;4.336;2023-07-13T07:01:06;12.55;;;3.72;;
23519;SDS011;11936;50.820;4.336;2023-07-13T07:03:32;10.45;;;4.13;;
23519;SDS011;11936;50.820;4.336;2023-07-13T07:06:12;16.40;;;3.95;;
23519;SDS011;11936;50.820;4.336;2023-07-13T07:08:42;9.77;;;3.33;;
23519;SDS011;11936;50.820;4.336;2023-07-13T07:11:08;13.32;;;3.42;;
23519;SDS011;11936;50.820;4.336;2023-07-13T07:16:02;16.83;;;4.50;;
23519;SDS011;11936;50.820;4.336;2023-07-13T07:18:27;11.63;;;4.10;;
23519;SDS011;11936;50.820;4.336;2023-07-13T07:20:53;16.23;;;4.47;;
23519;SDS011;11936;50.820;4.336;2023-07-13T07:23:18;15.20;;;3.40;;
23519;SDS011;11936;50.820;4.336;2023-07-13T07:25:44;15.70;;;3.67;;
23519;SDS011;11936;50.820;4.336;2023-07-13T07:28:10;11.98;;;4.13;;
23519;SDS011;11936;50.820;4.336;2023-07-13T07:30:36;16.27;;;3.90;;
23519;SDS011;11936;50.820;4.336;2023-07-13T07:33:03;14.23;;;3.63;;
23519;SDS011;11936;50.820;4.336;2023-07-13T07:35:28;11.35;;;3.50;;
23519;SDS011;11936;50.820;4.336;2023-07-13T07:37:54;22.48;;;4.57;;
23519;SDS011;11936;50.820;4.336;2023-07-13T07:40:19;12.23;;;4.13;;
23519;SDS011;11936;50.820;4.336;2023-07-13T07:42:45;14.88;;;5.72;;
23519;SDS011;11936;50.820;4.336;2023-07-13T07:45:10;13.05;;;4.65;;
23519;SDS011;11936;50.820;4.336;2023-07-13T07:47:36;11.15;;;3.35;;
23519;SDS011;11936;50.820;4.336;2023-07-13T07:50:03;19.90;;;4.32;;
23519;SDS011;11936;50.820;4.336;2023-07-13T07:52:29;14.63;;;3.78;;
23519;SDS011;11936;50.820;4.336;2023-07-13T07:54:54;14.45;;;3.97;;
23519;SDS011;11936;50.820;4.336;2023-07-13T07:57:20;13.38;;;3.88;;
23519;SDS011;11936;50.820;4.336;2023-07-13T07:59:46;9.90;;;2.70;;
23519;SDS011;11936;50.820;4.336;2023-07-13T08:02:11;9.05;;;2.97;;
23519;SDS011;11936;50.820;4.336;2023-07-13T08:04:37;10.63;;;3.25;;
23519;SDS011;11936;50.820;4.336;2023-07-13T08:07:02;11.73;;;3.47;;
23519;SDS011;11936;50.820;4.336;2023-07-13T08:09:28;11.48;;;3.33;;
23519;SDS011;11936;50.820;4.336;2023-07-13T08:11:54;7.60;;;3.03;;
23519;SDS011;11936;50.820;4.336;2023-07-13T08:14:20;16.35;;;6.15;;
23519;SDS011;11936;50.820;4.336;2023-07-13T08:16:46;11.77;;;3.60;;
23519;SDS011;11936;50.820;4.336;2023-07-13T08:19:11;16.85;;;3.47;;
23519;SDS011;11936;50.820;4.336;2023-07-13T08:21:37;13.88;;;3.83;;
23519;SDS011;11936;50.820;4.336;2023-07-13T08:24:03;12.45;;;3.40;;
23519;SDS011;11936;50.820;4.336;2023-07-13T08:26:28;13.30;;;3.38;;
23519;SDS011;11936;50.820;4.336;2023-07-13T08:28:54;8.20;;;3.30;;
23519;SDS011;11936;50.820;4.336;2023-07-13T08:31:20;14.80;;;2.95;;
23519;SDS011;11936;50.820;4.336;2023-07-13T08:33:45;14.90;;;3.38;;
23519;SDS011;11936;50.820;4.336;2023-07-13T08:36:11;14.55;;;4.10;;
23519;SDS011;11936;50.820;4.336;2023-07-13T08:38:36;11.48;;;3.13;;
23519;SDS011;11936;50.820;4.336;2023-07-13T08:41:09;10.55;;;3.28;;
23519;SDS011;11936;50.820;4.336;2023-07-13T08:43:39;9.75;;;3.05;;
23519;SDS011;11936;50.820;4.336;2023-07-13T08:49:15;12.57;;;3.50;;
23519;SDS011;11936;50.820;4.336;2023-07-13T08:51:49;11.70;;;3.85;;
23519;SDS011;11936;50.820;4.336;2023-07-13T08:57:00;7.65;;;2.80;;
23519;SDS011;11936;50.820;4.336;2023-07-13T08:59:42;13.57;;;3.88;;
23519;SDS011;11936;50.820;4.336;2023-07-13T09:07:23;6.75;;;2.97;;
23519;SDS011;11936;50.820;4.336;2023-07-13T09:10:14;9.27;;;3.03;;
23519;SDS011;11936;50.820;4.336;2023-07-13T09:17:51;7.60;;;2.95;;
23519;SDS011;11936;50.820;4.336;2023-07-13T09:20:25;9.52;;;3.17;;
23519;SDS011;11936;50.820;4.336;2023-07-13T09:23:05;8.55;;;2.67;;
23519;SDS011;11936;50.820;4.336;2023-07-13T09:25:36;12.30;;;3.22;;
23519;SDS011;11936;50.820;4.336;2023-07-13T09:28:10;7.60;;;2.53;;
23519;SDS011;11936;50.820;4.336;2023-07-13T09:31:01;10.30;;;3.35;;
23519;SDS011;11936;50.820;4.336;2023-07-13T09:33:47;7.82;;;3.70;;
23519;SDS011;11936;50.820;4.336;2023-07-13T09:36:29;10.85;;;3.42;;
23519;SDS011;11936;50.820;4.336;2023-07-13T09:44:14;7.07;;;3.22;;
23519;SDS011;11936;50.820;4.336;2023-07-13T09:46:45;9.02;;;2.97;;
23519;SDS011;11936;50.820;4.336;2023-07-13T09:49:28;14.00;;;3.10;;
23519;SDS011;11936;50.820;4.336;2023-07-13T09:51:59;11.98;;;3.03;;
23519;SDS011;11936;50.820;4.336;2023-07-13T09:54:27;8.35;;;2.50;;
23519;SDS011;11936;50.820;4.336;2023-07-13T09:56:54;8.40;;;2.88;;
23519;SDS011;11936;50.820;4.336;2023-07-13T09:59:26;9.77;;;2.80;;
23519;SDS011;11936;50.820;4.336;2023-07-13T10:01:54;8.07;;;2.33;;
23519;SDS011;11936;50.820;4.336;2023-07-13T10:04:21;12.00;;;2.83;;
23519;SDS011;11936;50.820;4.336;2023-07-13T10:06:52;9.40;;;2.42;;
23519;SDS011;11936;50.820;4.336;2023-07-13T10:09:31;9.07;;;5.30;;
23519;SDS011;11936;50.820;4.336;2023-07-13T10:11:57;5.75;;;2.40;;
23519;SDS011;11936;50.820;4.336;2023-07-13T10:14:23;8.82;;;2.42;;
23519;SDS011;11936;50.820;4.336;2023-07-13T10:16:51;7.47;;;2.72;;
23519;SDS011;11936;50.820;4.336;2023-07-13T10:19:23;6.47;;;2.15;;
23519;SDS011;11936;50.820;4.336;2023-07-13T10:21:56;13.63;;;2.92;;
23519;SDS011;11936;50.820;4.336;2023-07-13T10:24:29;6.38;;;2.28;;
23519;SDS011;11936;50.820;4.336;2023-07-13T10:27:00;5.70;;;2.22;;
23519;SDS011;11936;50.820;4.336;2023-07-13T10:29:32;10.45;;;2.97;;
23519;SDS011;11936;50.820;4.336;2023-07-13T10:32:08;8.70;;;2.30;;
23519;SDS011;11936;50.820;4.336;2023-07-13T10:34:36;7.65;;;1.88;;
23519;SDS011;11936;50.820;4.336;2023-07-13T10:37:02;7.25;;;2.22;;
23519;SDS011;11936;50.820;4.336;2023-07-13T10:39:30;8.32;;;2.33;;
23519;SDS011;11936;50.820;4.336;2023-07-13T10:42:03;9.93;;;2.55;;
23519;SDS011;11936;50.820;4.336;2023-07-13T10:44:32;7.18;;;2.30;;
23519;SDS011;11936;50.820;4.336;2023-07-13T10:46:59;9.50;;;2.58;;
23519;SDS011;11936;50.820;4.336;2023-07-13T10:49:31;11.48;;;2.85;;
23519;SDS011;11936;50.820;4.336;2023-07-13T10:57:07;6.35;;;2.75;;
23519;SDS011;11936;50.820;4.336;2023-07-13T10:59:41;7.97;;;2.67;;
23519;SDS011;11936;50.820;4.336;2023-07-13T11:02:21;9.25;;;2.30;;
23519;SDS011;11936;50.820;4.336;2023-07-13T11:04:53;5.93;;;2.45;;
23519;SDS011;11936;50.820;4.336;2023-07-13T11:07:21;4.72;;;2.15;;
23519;SDS011;11936;50.820;4.336;2023-07-13T11:09:55;10.40;;;2.50;;
23519;SDS011;11936;50.820;4.336;2023-07-13T11:18:03;7.18;;;2.65;;
23519;SDS011;11936;50.820;4.336;2023-07-13T11:22:50;6.82;;;2.35;;
23519;SDS011;11936;50.820;4.336;2023-07-13T11:27:49;5.30;;;2.38;;
23519;SDS011;11936;50.820;4.336;2023-07-13T11:33:09;9.57;;;2.55;;
23519;SDS011;11936;50.820;4.336;2023-07-13T11:38:23;5.05;;;2.67;;
23519;SDS011;11936;50.820;4.336;2023-07-13T11:40:50;7.93;;;2.97;;
23519;SDS011;11936;50.820;4.336;2023-07-13T11:43:19;5.72;;;2.33;;
23519;SDS011;11936;50.820;4.336;2023-07-13T11:45:48;6.60;;;2.38;;
23519;SDS011;11936;50.820;4.336;2023-07-13T11:48:21;6.47;;;2.00;;
23519;SDS011;11936;50.820;4.336;2023-07-13T11:50:59;6.80;;;2.03;;
23519;SDS011;11936;50.820;4.336;2023-07-13T11:53:29;3.83;;;1.98;;
23519;SDS011;11936;50.820;4.336;2023-07-13T11:56:03;6.82;;;2.45;;
23519;SDS011;11936;50.820;4.336;2023-07-13T11:58:28;5.25;;;2.38;;
23519;SDS011;11936;50.820;4.336;2023-07-13T12:00:55;5.13;;;2.10;;
23519;SDS011;11936;50.820;4.336;2023-07-13T12:03:25;9.05;;;2.05;;
23519;SDS011;11936;50.820;4.336;2023-07-13T12:06:19;3.20;;;1.60;;
23519;SDS011;11936;50.820;4.336;2023-07-13T12:08:55;6.10;;;2.85;;
23519;SDS011;11936;50.820;4.336;2023-07-13T12:11:22;6.22;;;2.22;;
23519;SDS011;11936;50.820;4.336;2023-07-13T12:13:48;4.68;;;2.25;;
23519;SDS011;11936;50.820;4.336;2023-07-13T12:16:17;5.95;;;2.35;;
23519;SDS011;11936;50.820;4.336;2023-07-13T12:18:55;4.53;;;2.13;;
23519;SDS011;11936;50.820;4.336;2023-07-13T12:21:23;6.03;;;1.90;;
23519;SDS011;11936;50.820;4.336;2023-07-13T12:24:04;6.53;;;2.35;;
23519;SDS011;11936;50.820;4.336;2023-07-13T12:26:38;6.20;;;1.25;;
23519;SDS011;11936;50.820;4.336;2023-07-13T12:29:05;3.97;;;2.05;;
23519;SDS011;11936;50.820;4.336;2023-07-13T12:31:36;6.18;;;1.90;;
23519;SDS011;11936;50.820;4.336;2023-07-13T12:34:10;4.78;;;2.20;;
23519;SDS011;11936;50.820;4.336;2023-07-13T12:36:49;4.10;;;1.60;;
23519;SDS011;11936;50.820;4.336;2023-07-13T12:39:23;2.45;;;2.10;;
23519;SDS011;11936;50.820;4.336;2023-07-13T12:42:36;3.88;;;1.90;;
23519;SDS011;11936;50.820;4.336;2023-07-13T12:44:58;4.75;;;2.70;;
23519;SDS011;11936;50.820;4.336;2023-07-13T12:47:29;9.07;;;2.70;;
23519;SDS011;11936;50.820;4.336;2023-07-13T12:49:57;8.00;;;2.67;;
23519;SDS011;11936;50.820;4.336;2023-07-13T12:52:31;6.30;;;2.42;;
23519;SDS011;11936;50.820;4.336;2023-07-13T12:55:02;7.45;;;2.47;;
23519;SDS011;11936;50.820;4.336;2023-07-13T12:57:31;7.15;;;2.55;;
23519;SDS011;11936;50.820;4.336;2023-07-13T12:59:59;5.10;;;2.20;;
23519;SDS011;11936;50.820;4.336;2023-07-13T13:02:29;3.50;;;2.17;;
23519;SDS011;11936;50.820;4.336;2023-07-13T13:04:58;8.43;;;2.03;;
23519;SDS011;11936;50.820;4.336;2023-07-13T13:07:24;4.88;;;2.30;;
23519;SDS011;11936;50.820;4.336;2023-07-13T13:09:50;4.32;;;3.28;;
23519;SDS011;11936;50.820;4.336;2023-07-13T13:12:18;4.38;;;1.88;;
23519;SDS011;11936;50.820;4.336;2023-07-13T13:14:44;6.43;;;2.00;;
23519;SDS011;11936;50.820;4.336;2023-07-13T13:17:24;3.72;;;1.90;;
23519;SDS011;11936;50.820;4.336;2023-07-13T13:19:53;5.07;;;2.30;;
23519;SDS011;11936;50.820;4.336;2023-07-13T13:22:19;2.72;;;1.90;;
23519;SDS011;11936;50.820;4.336;2023-07-13T13:24:45;4.97;;;2.40;;
23519;SDS011;11936;50.820;4.336;2023-07-13T13:27:21;4.70;;;2.38;;
23519;SDS011;11936;50.820;4.336;2023-07-13T13:29:49;7.80;;;2.22;;
23519;SDS011;11936;50.820;4.336;2023-07-13T13:32:17;4.57;;;2.00;;
23519;SDS011;11936;50.820;4.336;2023-07-13T13:34:43;5.72;;;2.60;;
23519;SDS011;11936;50.820;4.336;2023-07-13T13:37:16;5.60;;;2.25;;
23519;SDS011;11936;50.820;4.336;2023-07-13T13:39:46;3.50;;;2.05;;
23519;SDS011;11936;50.820;4.336;2023-07-13T13:42:12;11.35;;;2.38;;
23519;SDS011;11936;50.820;4.336;2023-07-13T13:44:38;6.47;;;1.80;;
23519;SDS011;11936;50.820;4.336;2023-07-13T13:47:07;4.97;;;2.00;;
23519;SDS011;11936;50.820;4.336;2023-07-13T13:49:52;2.97;;;1.60;;
23519;SDS011;11936;50.820;4.336;2023-07-13T13:52:18;5.53;;;2.13;;
23519;SDS011;11936;50.820;4.336;2023-07-13T13:54:46;6.47;;;2.33;;
23519;SDS011;11936;50.820;4.336;2023-07-13T13:57:12;4.47;;;2.00;;
23519;SDS011;11936;50.820;4.336;2023-07-13T13:59:39;5.03;;;2.10;;
23519;SDS011;11936;50.820;4.336;2023-07-13T14:02:25;2.60;;;1.60;;
23519;SDS011;11936;50.820;4.336;2023-07-13T14:04:57;6.30;;;2.20;;
23519;SDS011;11936;50.820;4.336;2023-07-13T14:07:24;4.95;;;1.65;;
23519;SDS011;11936;50.820;4.336;2023-07-13T14:09:51;3.42;;;2.03;;
23519;SDS011;11936;50.820;4.336;2023-07-13T14:12:21;5.72;;;2.13;;
23519;SDS011;11936;50.820;4.336;2023-07-13T14:14:47;4.50;;;1.90;;
23519;SDS011;11936;50.820;4.336;2023-07-13T14:17:19;5.65;;;2.30;;
23519;SDS011;11936;50.820;4.336;2023-07-13T14:19:47;7.47;;;2.55;;
23519;SDS011;11936;50.820;4.336;2023-07-13T14:22:16;5.53;;;1.98;;
23519;SDS011;11936;50.820;4.336;2023-07-13T14:24:42;8.27;;;2.10;;
23519;SDS011;11936;50.820;4.336;2023-07-13T14:27:09;7.57;;;2.05;;
23519;SDS011;11936;50.820;4.336;2023-07-13T14:29:36;5.00;;;2.10;;
23519;SDS011;11936;50.820;4.336;2023-07-13T14:32:04;7.00;;;2.17;;
23519;SDS011;11936;50.820;4.336;2023-07-13T14:34:31;5.18;;;2.45;;
23519;SDS011;11936;50.820;4.336;2023-07-13T14:36:56;7.38;;;2.05;;
23519;SDS011;11936;50.820;4.336;2023-07-13T14:39:23;5.35;;;1.80;;
23519;SDS011;11936;50.820;4.336;2023-07-13T14:41:50;4.05;;;1.88;;
23519;SDS011;11936;50.820;4.336;2023-07-13T14:44:17;5.60;;;2.22;;
23519;SDS011;11936;50.820;4.336;2023-07-13T14:46:46;6.57;;;2.08;;
23519;SDS011;11936;50.820;4.336;2023-07-13T14:52:02;3.65;;;1.80;;
23519;SDS011;11936;50.820;4.336;2023-07-13T14:54:39;3.42;;;1.60;;
23519;SDS011;11936;50.820;4.336;2023-07-13T14:57:13;6.78;;;2.08;;
23519;SDS011;11936;50.820;4.336;2023-07-13T14:59:40;3.67;;;1.88;;
23519;SDS011;11936;50.820;4.336;2023-07-13T15:04:43;4.30;;;1.65;;
23519;SDS011;11936;50.820;4.336;2023-07-13T15:07:10;3.75;;;1.95;;
23519;SDS011;11936;50.820;4.336;2023-07-13T15:09:39;6.22;;;1.80;;
23519;SDS011;11936;50.820;4.336;2023-07-13T15:12:04;1.90;;;1.30;;
23519;SDS011;11936;50.820;4.336;2023-07-13T15:14:30;5.03;;;1.83;;
23519;SDS011;11936;50.820;4.336;2023-07-13T15:16:57;5.13;;;1.77;;
23519;SDS011;11936;50.820;4.336;2023-07-13T15:19:23;4.60;;;2.17;;
23519;SDS011;11936;50.820;4.336;2023-07-13T15:21:50;2.10;;;1.45;;
23519;SDS011;11936;50.820;4.336;2023-07-13T15:24:17;2.67;;;1.88;;
23519;SDS011;11936;50.820;4.336;2023-07-13T15:26:43;4.00;;;1.95;;
23519;SDS011;11936;50.820;4.336;2023-07-13T15:29:13;4.30;;;1.92;;
23519;SDS011;11936;50.820;4.336;2023-07-13T15:31:40;7.53;;;2.70;;
23519;SDS011;11936;50.820;4.336;2023-07-13T15:34:11;3.03;;;2.08;;
23519;SDS011;11936;50.820;4.336;2023-07-13T15:36:38;7.15;;;2.17;;
23519;SDS011;11936;50.820;4.336;2023-07-13T15:39:04;3.13;;;1.80;;